Time;durP1;ratioP1;P1;durP2;ratioP2;P2;SDS_P1;SDS_P2;PMS_P1;PMS_P2;Temp;Humidity;BMP_temperature;BMP_pressure;BME280_temperature;BME280_humidity;BME280_pressure;Samples;Min_cycle;Max_cycle;Signal;HPM_P1;HPM_P2
2023/10/03 00:00:57;;;;;;;18.80;6.50;;;;;;;10.01;65.61;102165.94;107568;1255;108701;-61
2023/10/03 00:03:39;;;;;;;23.70;6.60;;;;;;;10.01;65.66;102166.35;107538;1253;109225;-63
2023/10/03 00:06:09;;;;;;;24.00;6.80;;;;;;;10.01;65.69;102162.56;107509;1254;99175;-61
2023/10/03 00:08:38;;;;;;;16.80;6.40;;;;;;;10.01;65.76;102163.29;107621;1253;99062;-62
2023/10/03 00:11:17;;;;;;;24.20;6.70;;;;;;;10.00;65.83;102164.96;107593;1251;113465;-63
2023/10/03 00:13:47;;;;;;;18.40;6.60;;;;;;;9.98;65.83;102162.94;107565;1255;109826;-62
2023/10/03 00:16:15;;;;;;;23.90;8.10;;;;;;;9.96;65.77;102158.21;107549;1253;107963;-63
2023/10/03 00:18:44;;;;;;;23.80;7.00;;;;;;;9.95;65.73;102153.63;107568;1253;99208;-63
2023/10/03 00:21:12;;;;;;;21.60;7.60;;;;;;;9.93;65.80;102152.68;107570;1256;99271;-63
2023/10/03 00:23:40;;;;;;;23.80;7.10;;;;;;;9.93;65.97;102152.00;107591;1254;112423;-63
2023/10/03 00:26:09;;;;;;;24.90;7.40;;;;;;;9.89;66.22;102155.12;107550;1253;109119;-62
2023/10/03 00:28:42;;;;;;;;;;;;;;;9.83;66.43;102153.64;107596;1253;108069;-63
2023/10/03 00:31:13;;;;;;;21.70;6.40;;;;;;;9.75;66.36;102150.96;107490;1254;99201;-62
2023/10/03 00:33:42;;;;;;;19.30;6.70;;;;;;;9.67;67.00;102144.65;107565;1256;99842;-62
2023/10/03 00:36:25;;;;;;;28.20;6.90;;;;;;;9.62;67.11;102141.70;107614;1251;112985;-62
2023/10/03 00:38:53;;;;;;;18.60;7.10;;;;;;;9.59;67.15;102141.91;107571;1254;108658;-64
2023/10/03 00:41:22;;;;;;;18.30;7.10;;;;;;;9.53;67.57;102136.89;107587;1253;108208;-62
2023/10/03 00:44:01;;;;;;;24.00;7.30;;;;;;;9.48;67.83;102137.59;107576;1254;99176;-63
2023/10/03 00:46:33;;;;;;;16.70;7.20;;;;;;;9.45;68.05;102134.39;107561;1253;99365;-62
2023/10/03 00:49:08;;;;;;;18.90;6.50;;;;;;;9.44;68.12;102132.83;107600;1254;112792;-62
2023/10/03 00:51:40;;;;;;;19.70;7.20;;;;;;;9.41;68.17;102130.45;107588;1253;109938;-62
2023/10/03 00:54:10;;;;;;;23.10;7.90;;;;;;;9.39;68.47;102131.29;107574;1254;107118;-61
2023/10/03 00:56:43;;;;;;;17.20;7.70;;;;;;;9.38;68.48;102127.62;107589;1254;99277;-62
2023/10/03 00:59:13;;;;;;;25.50;7.30;;;;;;;9.35;68.69;102125.86;107613;1254;99762;-61
2023/10/03 01:01:43;;;;;;;21.20;7.50;;;;;;;9.31;68.51;102127.71;107515;1254;113015;-61
2023/10/03 01:04:19;;;;;;;20.60;7.50;;;;;;;9.29;68.79;102124.59;107601;1253;108212;-61
2023/10/03 01:06:49;;;;;;;25.50;7.60;;;;;;;9.27;68.79;102122.25;107497;1253;107145;-61
2023/10/03 01:09:23;;;;;;;21.70;7.80;;;;;;;9.26;68.77;102126.77;107414;1253;99080;-62
2023/10/03 01:11:53;;;;;;;20.40;8.90;;;;;;;9.24;69.20;102125.98;107500;1252;99135;-62
2023/10/03 01:14:23;;;;;;;29.70;8.50;;;;;;;9.22;69.15;102121.42;107538;1253;113718;-62
2023/10/03 01:16:52;;;;;;;24.30;8.50;;;;;;;9.22;69.07;102125.58;107558;1254;109515;-61
2023/10/03 01:19:24;;;;;;;19.40;8.30;;;;;;;9.22;69.38;102120.54;107531;1254;108138;-62
2023/10/03 01:21:53;;;;;;;20.20;8.50;;;;;;;9.18;69.46;102124.39;107501;1254;99198;-62
2023/10/03 01:24:26;;;;;;;23.70;8.30;;;;;;;9.12;69.48;102121.70;107441;1254;99840;-60
2023/10/03 01:26:56;;;;;;;25.50;9.20;;;;;;;9.09;69.32;102122.05;107539;1254;113251;-62
2023/10/03 01:29:24;;;;;;;22.20;8.90;;;;;;;9.08;69.45;102122.47;107568;1254;109803;-61
2023/10/03 01:31:53;;;;;;;27.40;11.10;;;;;;;9.07;69.91;102122.33;107460;1253;107392;-61
2023/10/03 01:34:21;;;;;;;26.60;9.40;;;;;;;9.05;70.01;102118.74;107507;1256;99198;-61
2023/10/03 01:36:50;;;;;;;22.30;9.30;;;;;;;9.05;69.86;102122.46;107535;1254;99301;-61
2023/10/03 01:39:19;;;;;;;22.00;8.10;;;;;;;9.06;69.91;102122.77;107516;1253;112566;-61
2023/10/03 01:41:48;;;;;;;26.70;9.60;;;;;;;9.06;69.84;102120.06;107530;1254;109144;-62
2023/10/03 01:44:17;;;;;;;38.10;9.80;;;;;;;9.05;69.92;102119.97;107443;1254;107800;-62
2023/10/03 01:46:47;;;;;;;22.20;8.40;;;;;;;9.05;70.06;102120.17;107408;1253;99173;-60
2023/10/03 01:49:16;;;;;;;24.30;7.60;;;;;;;9.01;70.24;102119.48;107548;1253;99198;-62
2023/10/03 01:51:44;;;;;;;25.30;7.90;;;;;;;8.99;70.04;102121.95;107532;1253;112289;-63
2023/10/03 01:54:13;;;;;;;21.00;8.30;;;;;;;8.98;70.11;102123.61;107502;1254;109649;-61
2023/10/03 01:56:42;;;;;;;24.60;8.70;;;;;;;8.97;70.17;102127.25;107516;1253;107410;-61
2023/10/03 01:59:10;;;;;;;28.50;8.20;;;;;;;8.93;70.43;102125.52;107452;1258;99313;-61
2023/10/03 02:01:38;;;;;;;27.20;8.30;;;;;;;8.88;70.52;102124.20;107564;1252;99171;-61
2023/10/03 02:04:07;;;;;;;20.90;7.70;;;;;;;8.85;70.57;102128.50;107472;1257;113088;-61
2023/10/03 02:06:36;;;;;;;27.70;8.00;;;;;;;8.82;70.42;102131.54;107483;1256;108801;-62
2023/10/03 02:09:07;;;;;;;21.80;7.20;;;;;;;8.77;70.77;102130.21;107509;1253;108345;-61
2023/10/03 02:11:37;;;;;;;29.00;7.80;;;;;;;8.71;71.11;102130.57;107360;1254;99327;-62
2023/10/03 02:14:08;;;;;;;34.10;8.60;;;;;;;8.64;70.78;102130.83;107533;1253;99830;-61
2023/10/03 02:16:43;;;;;;;40.00;9.50;;;;;;;8.62;70.91;102129.14;107401;1254;111558;-61
2023/10/03 02:19:12;;;;;;;21.50;8.00;;;;;;;8.62;70.93;102130.92;107473;1253;110080;-61
2023/10/03 02:21:42;;;;;;;29.40;8.00;;;;;;;8.59;70.86;102138.39;107518;1253;107823;-62
2023/10/03 02:24:13;;;;;;;23.30;7.20;;;;;;;8.58;70.63;102133.45;107567;1253;99195;-62
2023/10/03 02:26:42;;;;;;;24.90;7.90;;;;;;;8.56;70.72;102135.53;107359;1253;99707;-61
2023/10/03 02:29:12;;;;;;;17.40;6.60;;;;;;;8.53;70.51;102132.11;107555;1254;112265;-61
2023/10/03 02:31:43;;;;;;;16.40;7.80;;;;;;;8.53;70.58;102138.08;107507;1254;109044;-62
2023/10/03 02:34:11;;;;;;;17.50;8.60;;;;;;;8.50;70.82;102132.13;107515;1252;106766;-60
2023/10/03 02:36:40;;;;;;;18.40;6.70;;;;;;;8.46;70.56;102133.95;107476;1252;99372;-62
2023/10/03 02:39:09;;;;;;;24.00;8.80;;;;;;;8.44;70.72;102136.56;107514;1254;99192;-62
2023/10/03 02:41:39;;;;;;;21.60;7.10;;;;;;;8.42;70.65;102130.42;107546;1254;113590;-61
2023/10/03 02:44:12;;;;;;;25.50;7.30;;;;;;;8.39;70.65;102129.13;107561;1254;110090;-62
2023/10/03 02:46:41;;;;;;;19.60;6.80;;;;;;;8.37;70.69;102127.66;107491;1258;108130;-61
2023/10/03 02:49:10;;;;;;;20.00;8.10;;;;;;;8.36;70.86;102125.20;107510;1253;99183;-61
2023/10/03 02:51:41;;;;;;;22.60;7.30;;;;;;;8.35;70.69;102123.86;107476;1253;99075;-62
2023/10/03 02:54:10;;;;;;;19.30;7.50;;;;;;;8.35;70.85;102125.29;107395;1258;113477;-63
2023/10/03 02:56:38;;;;;;;15.60;7.50;;;;;;;8.34;70.91;102125.02;107589;1253;109867;-61
2023/10/03 02:59:07;;;;;;;19.30;7.90;;;;;;;8.29;70.71;102122.77;107487;1253;108318;-62
2023/10/03 03:01:38;;;;;;;19.30;7.40;;;;;;;8.26;70.63;102124.20;107483;1254;99177;-62
2023/10/03 03:04:11;;;;;;;16.80;6.60;;;;;;;8.23;70.73;102126.30;107624;1253;99115;-63
2023/10/03 03:06:42;;;;;;;;;;;;;;;8.20;70.65;102120.58;107564;1253;113303;-67
2023/10/03 03:09:17;;;;;;;23.00;8.50;;;;;;;8.19;70.45;102124.07;107584;1254;109100;-61
2023/10/03 03:11:48;;;;;;;19.30;7.00;;;;;;;8.18;70.60;102120.02;107588;1255;107185;-62
2023/10/03 03:14:18;;;;;;;18.30;7.00;;;;;;;8.16;70.62;102116.00;107518;1254;99167;-63
2023/10/03 03:16:47;;;;;;;22.00;6.90;;;;;;;8.16;70.87;102113.66;107587;1253;99220;-61
2023/10/03 03:19:16;;;;;;;19.80;6.90;;;;;;;8.13;70.79;102112.40;107581;1255;112353;-62
2023/10/03 03:21:44;;;;;;;18.50;7.40;;;;;;;8.11;70.74;102112.54;107553;1253;108885;-62
2023/10/03 03:24:18;;;;;;;22.20;7.40;;;;;;;8.09;70.65;102113.01;107514;1254;108055;-61
2023/10/03 03:26:52;;;;;;;;;;;;;;;8.07;70.91;102113.79;107564;1254;99185;-61
2023/10/03 03:29:21;;;;;;;18.90;7.70;;;;;;;8.04;70.96;102112.92;107608;1254;99159;-61
2023/10/03 03:31:50;;;;;;;23.90;9.60;;;;;;;7.99;71.08;102113.90;107548;1254;113168;-61
2023/10/03 03:34:21;;;;;;;20.60;7.30;;;;;;;7.94;71.40;102114.73;107542;1254;108987;-62
2023/10/03 03:36:54;;;;;;;17.70;8.00;;;;;;;7.90;71.67;102113.37;107542;1253;108720;-60
2023/10/03 03:39:27;;;;;;;23.00;8.20;;;;;;;7.87;72.15;102113.70;107592;1254;99171;-61
2023/10/03 03:41:56;;;;;;;13.50;6.40;;;;;;;7.85;72.16;102115.38;107547;1253;99726;-61
2023/10/03 03:44:25;;;;;;;17.50;5.90;;;;;;;7.84;72.04;102111.69;107572;1254;113107;-61
2023/10/03 03:46:54;;;;;;;20.30;6.70;;;;;;;7.84;72.01;102111.33;107514;1254;110099;-63
2023/10/03 03:49:25;;;;;;;16.30;7.30;;;;;;;7.83;72.12;102111.20;107598;1251;106980;-62
2023/10/03 03:51:53;;;;;;;25.00;7.30;;;;;;;7.83;72.11;102118.34;107549;1254;99210;-61
2023/10/03 03:54:22;;;;;;;17.40;6.60;;;;;;;7.84;72.10;102115.63;107569;1253;99706;-61
2023/10/03 03:56:50;;;;;;;19.80;7.30;;;;;;;7.82;72.19;102115.70;107608;1254;113805;-62
2023/10/03 03:59:19;;;;;;;21.00;7.70;;;;;;;7.81;72.25;102114.02;107573;1254;109269;-63
2023/10/03 04:01:50;;;;;;;16.90;6.20;;;;;;;7.78;72.28;102115.40;107562;1253;107740;-61
2023/10/03 04:04:19;;;;;;;15.50;6.50;;;;;;;7.78;72.41;102110.63;107553;1254;99248;-62
2023/10/03 04:06:48;;;;;;;26.60;6.90;;;;;;;7.77;72.19;102111.89;107534;1253;99076;-63
2023/10/03 04:09:16;;;;;;;16.80;7.10;;;;;;;7.79;71.99;102113.77;107595;1254;113370;-62
2023/10/03 04:11:46;;;;;;;23.10;7.00;;;;;;;7.80;71.97;102115.34;107559;1254;108768;-61
2023/10/03 04:14:15;;;;;;;18.70;6.70;;;;;;;7.77;71.91;102112.77;107531;1254;107456;-61
2023/10/03 04:16:43;;;;;;;18.20;7.20;;;;;;;7.77;72.05;102116.23;107492;1252;99065;-61
2023/10/03 04:19:13;;;;;;;20.30;6.50;;;;;;;7.75;72.14;102115.27;107533;1254;99057;-62
2023/10/03 04:21:41;;;;;;;19.00;7.30;;;;;;;7.71;71.88;102115.44;107580;1254;113129;-61
2023/10/03 04:24:12;;;;;;;24.10;6.70;;;;;;;7.69;71.84;102118.22;107585;1254;108581;-61
2023/10/03 04:26:44;;;;;;;19.80;7.00;;;;;;;7.69;72.05;102119.13;107613;1253;107846;-62
2023/10/03 04:29:13;;;;;;;22.10;7.10;;;;;;;7.70;71.86;102121.05;107585;1254;99196;-63
2023/10/03 04:31:46;;;;;;;27.20;7.70;;;;;;;7.69;71.96;102116.83;107614;1253;99186;-62
2023/10/03 04:34:19;;;;;;;25.90;6.80;;;;;;;7.70;71.86;102114.77;107568;1254;112620;-63
2023/10/03 04:36:48;;;;;;;23.50;7.80;;;;;;;7.72;72.13;102113.41;107593;1253;109747;-63
2023/10/03 04:39:19;;;;;;;24.90;7.40;;;;;;;7.77;72.18;102120.80;107541;1254;107095;-62
2023/10/03 04:41:48;;;;;;;21.30;7.70;;;;;;;7.82;71.94;102121.27;107558;1254;99195;-62
2023/10/03 04:44:17;;;;;;;32.70;7.60;;;;;;;7.86;72.13;102118.90;107537;1254;100559;-62
2023/10/03 04:46:48;;;;;;;24.30;8.10;;;;;;;7.89;72.05;102117.30;107543;1254;113461;-61
2023/10/03 04:49:16;;;;;;;17.60;6.70;;;;;;;7.95;72.17;102118.42;107510;1253;109318;-62
2023/10/03 04:51:45;;;;;;;23.20;7.00;;;;;;;7.97;72.11;102120.77;107542;1255;108119;-62
2023/10/03 04:54:16;;;;;;;17.60;7.40;;;;;;;8.01;72.12;102123.30;107616;1254;99176;-61
2023/10/03 04:56:45;;;;;;;14.90;7.10;;;;;;;8.04;71.96;102122.92;107581;1254;99087;-62
2023/10/03 04:59:14;;;;;;;18.60;8.30;;;;;;;8.07;71.97;102124.91;107529;1254;113540;-62
2023/10/03 05:01:43;;;;;;;19.90;7.70;;;;;;;8.10;71.86;102126.87;107542;1254;109559;-64
2023/10/03 05:04:14;;;;;;;17.20;7.20;;;;;;;8.16;72.07;102128.69;107582;1254;106818;-63
2023/10/03 05:06:47;;;;;;;28.80;8.00;;;;;;;8.20;71.90;102134.52;107567;1254;99192;-63
2023/10/03 05:09:17;;;;;;;21.00;7.20;;;;;;;8.24;71.92;102133.40;107503;1254;99164;-63
2023/10/03 05:11:50;;;;;;;19.50;8.80;;;;;;;8.28;71.79;102136.20;107535;1253;112781;-62
2023/10/03 05:14:20;;;;;;;18.50;6.80;;;;;;;8.34;71.91;102136.23;107524;1254;110827;-62
2023/10/03 05:16:50;;;;;;;29.30;7.30;;;;;;;8.38;71.95;102140.65;107479;1253;108321;-62
2023/10/03 05:19:21;;;;;;;27.90;8.40;;;;;;;8.45;72.03;102143.67;107418;1254;99253;-61
2023/10/03 05:21:49;;;;;;;22.10;7.90;;;;;;;8.49;72.06;102138.80;107596;1253;99025;-62
2023/10/03 05:24:19;;;;;;;22.50;7.60;;;;;;;8.53;72.15;102139.48;107520;1252;113805;-63
2023/10/03 05:26:48;;;;;;;23.30;8.40;;;;;;;8.59;72.00;102141.43;107548;1254;108849;-62
2023/10/03 05:29:21;;;;;;;21.20;7.90;;;;;;;8.66;72.04;102140.70;107510;1253;107773;-63
2023/10/03 05:31:49;;;;;;;26.60;7.00;;;;;;;8.72;71.84;102140.17;107531;1254;99050;-62
2023/10/03 05:34:20;;;;;;;31.20;7.90;;;;;;;8.78;71.77;102142.66;107469;1254;99871;-62
2023/10/03 05:36:49;;;;;;;27.90;8.00;;;;;;;8.87;71.91;102141.83;107562;1256;113014;-62
2023/10/03 05:39:18;;;;;;;19.80;7.70;;;;;;;8.96;71.95;102140.55;107567;1254;109229;-62
2023/10/03 05:41:48;;;;;;;36.90;10.10;;;;;;;9.05;72.20;102140.36;107559;1254;108353;-62
2023/10/03 05:44:18;;;;;;;37.00;10.30;;;;;;;9.14;72.17;102140.73;107519;1252;99202;-61
2023/10/03 05:46:52;;;;;;;24.00;8.10;;;;;;;9.20;71.98;102143.20;107608;1251;100875;-63
2023/10/03 05:49:23;;;;;;;31.30;8.50;;;;;;;9.26;71.78;102145.58;107381;1253;114565;-63
2023/10/03 05:51:58;;;;;;;27.60;8.60;;;;;;;9.30;71.75;102141.55;107500;1254;110021;-63
2023/10/03 05:54:26;;;;;;;30.30;8.60;;;;;;;9.37;71.96;102147.21;107451;1252;107716;-63
2023/10/03 05:56:55;;;;;;;29.20;9.70;;;;;;;9.47;71.93;102148.02;107525;1253;99046;-62
2023/10/03 05:59:26;;;;;;;30.30;9.80;;;;;;;9.57;71.98;102148.64;107508;1254;99262;-63
2023/10/03 06:01:57;;;;;;;33.80;9.10;;;;;;;9.68;71.84;102152.11;107576;1254;112619;-62
2023/10/03 06:04:26;;;;;;;37.20;9.00;;;;;;;9.78;71.83;102151.66;107606;1255;110020;-63
2023/10/03 06:06:55;;;;;;;32.50;9.50;;;;;;;9.88;71.87;102156.59;107566;1254;107448;-65
2023/10/03 06:09:24;;;;;;;32.80;8.40;;;;;;;9.99;71.99;102157.14;107533;1254;99189;-63
2023/10/03 06:11:53;;;;;;;33.80;9.10;;;;;;;10.10;71.69;102160.23;107532;1254;99226;-64
2023/10/03 06:14:25;;;;;;;28.60;9.60;;;;;;;10.19;71.52;102155.14;107589;1254;113742;-62
2023/10/03 06:16:53;;;;;;;37.60;10.10;;;;;;;10.29;71.45;102153.08;107572;1254;109023;-62
2023/10/03 06:19:22;;;;;;;33.00;10.10;;;;;;;10.39;71.37;102158.70;107500;1256;108580;-63
2023/10/03 06:21:50;;;;;;;33.20;9.30;;;;;;;10.51;71.30;102157.79;107588;1254;99213;-62
2023/10/03 06:24:19;;;;;;;32.00;9.00;;;;;;;10.61;71.03;102157.61;107621;1255;99303;-63
2023/10/03 06:26:48;;;;;;;49.70;11.70;;;;;;;10.73;71.00;102160.61;107584;1254;113750;-63
2023/10/03 06:29:17;;;;;;;56.20;12.10;;;;;;;10.83;70.77;102161.21;107502;1256;109951;-63
2023/10/03 06:31:45;;;;;;;53.90;12.60;;;;;;;10.90;70.27;102164.86;107526;1256;107338;-62
2023/10/03 06:34:16;;;;;;;58.90;13.60;;;;;;;10.97;70.09;102163.27;107578;1254;99839;-62
2023/10/03 06:36:44;;;;;;;47.20;14.20;;;;;;;11.05;69.98;102161.84;107486;1254;99747;-63
2023/10/03 06:39:12;;;;;;;71.70;14.10;;;;;;;11.16;69.76;102165.98;107558;1254;112803;-63
2023/10/03 06:41:41;;;;;;;59.20;12.60;;;;;;;11.25;69.45;102160.35;107584;1254;109381;-61
2023/10/03 06:44:09;;;;;;;44.10;13.70;;;;;;;11.34;69.23;102160.25;107586;1256;106972;-62
2023/10/03 06:46:38;;;;;;;45.70;11.80;;;;;;;11.43;68.85;102160.90;107563;1254;99237;-62
2023/10/03 06:49:06;;;;;;;54.00;14.30;;;;;;;11.52;68.62;102159.89;107586;1254;99186;-62
2023/10/03 06:51:35;;;;;;;54.30;12.80;;;;;;;11.61;68.27;102155.11;107576;1255;112972;-61
2023/10/03 06:54:04;;;;;;;39.60;12.80;;;;;;;11.69;68.03;102151.86;107549;1254;109260;-62
2023/10/03 06:56:34;;;;;;;49.70;13.40;;;;;;;11.78;67.82;102154.85;107578;1254;106861;-62
2023/10/03 06:59:06;;;;;;;47.40;14.00;;;;;;;11.87;67.84;102150.77;107540;1256;99266;-61
2023/10/03 07:01:35;;;;;;;31.00;10.60;;;;;;;11.97;67.68;102149.36;107582;1255;99260;-61
2023/10/03 07:04:06;;;;;;;45.60;10.60;;;;;;;12.06;67.43;102146.56;107608;1253;112209;-62
2023/10/03 07:06:35;;;;;;;44.30;11.50;;;;;;;12.16;67.32;102149.98;107587;1254;109526;-62
2023/10/03 07:09:07;;;;;;;41.90;11.70;;;;;;;12.25;67.38;102148.77;107568;1254;107915;-62
2023/10/03 07:11:37;;;;;;;55.70;12.40;;;;;;;12.36;67.01;102149.55;107622;1254;99162;-61
2023/10/03 07:14:05;;;;;;;40.40;11.70;;;;;;;12.48;66.43;102152.60;107553;1254;99291;-62
2023/10/03 07:16:38;;;;;;;54.90;11.40;;;;;;;12.59;66.37;102151.27;107553;1254;113219;-63
2023/10/03 07:19:09;;;;;;;38.30;11.20;;;;;;;12.72;66.16;102152.86;107588;1254;109504;-62
2023/10/03 07:21:38;;;;;;;38.10;11.30;;;;;;;12.85;66.11;102148.82;107514;1254;107004;-63
2023/10/03 07:24:08;;;;;;;39.00;11.60;;;;;;;12.98;65.93;102147.79;107544;1256;99217;-61
2023/10/03 07:26:36;;;;;;;49.20;11.00;;;;;;;13.13;65.71;102143.44;107530;1254;99687;-62
2023/10/03 07:29:06;;;;;;;48.00;11.80;;;;;;;13.29;65.71;102144.33;107508;1256;112629;-62
2023/10/03 07:31:34;;;;;;;41.80;11.70;;;;;;;13.49;65.47;102144.63;107546;1254;108691;-63
2023/10/03 07:34:03;;;;;;;31.50;9.60;;;;;;;13.68;65.28;102139.35;107579;1254;107945;-61
2023/10/03 07:36:31;;;;;;;32.80;11.20;;;;;;;13.87;64.81;102144.52;107453;1254;99205;-62
2023/10/03 07:39:00;;;;;;;24.50;9.10;;;;;;;14.05;64.38;102141.92;107632;1254;99288;-61
2023/10/03 07:41:29;;;;;;;34.20;10.80;;;;;;;14.23;63.64;102142.65;107598;1255;113240;-61
2023/10/03 07:43:57;;;;;;;26.10;9.80;;;;;;;14.39;62.91;102144.06;107527;1255;108654;-62
2023/10/03 07:46:26;;;;;;;32.10;10.60;;;;;;;14.55;62.65;102146.02;107598;1254;108623;-62
2023/10/03 07:48:55;;;;;;;33.40;11.40;;;;;;;14.73;62.18;102140.70;107565;1256;99051;-62
2023/10/03 07:51:29;;;;;;;34.60;12.10;;;;;;;14.90;61.65;102140.88;107554;1255;99078;-64
2023/10/03 07:53:57;;;;;;;;;;;;;;;15.08;60.99;102144.98;107657;1254;113161;-64
2023/10/03 07:56:33;;;;;;;36.90;10.60;;;;;;;15.22;58.71;102145.03;107577;1251;108605;-62
2023/10/03 07:59:04;;;;;;;22.50;9.50;;;;;;;15.38;59.03;102146.39;107479;1255;108149;-62
2023/10/03 08:01:38;;;;;;;46.70;12.40;;;;;;;15.56;58.71;102140.80;107548;1255;99201;-63
2023/10/03 08:04:31;;;;;;;28.40;9.40;;;;;;;15.76;57.84;102134.73;107578;1254;100887;-64
2023/10/03 08:07:00;;;;;;;34.70;10.20;;;;;;;15.94;57.46;102134.80;107600;1255;113136;-63
2023/10/03 08:09:31;;;;;;;32.50;10.00;;;;;;;16.11;57.16;102131.80;107571;1253;109672;-62
2023/10/03 08:12:11;;;;;;;36.80;10.60;;;;;;;16.30;56.47;102129.05;107500;1254;108372;-62
2023/10/03 08:14:40;;;;;;;36.80;10.60;;;;;;;16.49;56.35;102127.29;107551;1256;99217;-62
2023/10/03 08:17:11;;;;;;;28.60;10.20;;;;;;;16.68;55.94;102124.27;107614;1256;99089;-62
2023/10/03 08:19:44;;;;;;;39.40;10.30;;;;;;;16.87;55.39;102123.25;107586;1256;113295;-61
2023/10/03 08:22:14;;;;;;;32.10;11.30;;;;;;;17.07;54.45;102118.61;107615;1256;109717;-62
2023/10/03 08:24:46;;;;;;;35.20;10.40;;;;;;;17.28;53.96;102117.36;107587;1254;108641;-62
2023/10/03 08:27:21;;;;;;;42.40;10.70;;;;;;;17.49;54.16;102120.07;107584;1254;99164;-62
2023/10/03 08:29:51;;;;;;;31.80;10.30;;;;;;;17.73;53.25;102118.34;107639;1257;99058;-61
2023/10/03 08:32:20;;;;;;;34.20;13.20;;;;;;;17.93;50.96;102112.74;107581;1255;113289;-62
2023/10/03 08:34:49;;;;;;;37.90;14.30;;;;;;;18.12;51.25;102110.32;107639;1255;108857;-61
2023/10/03 08:37:21;;;;;;;38.30;13.60;;;;;;;18.32;50.63;102108.69;107591;1254;108857;-62
2023/10/03 08:39:51;;;;;;;40.30;13.30;;;;;;;18.52;50.65;102105.98;107583;1255;99170;-62
2023/10/03 08:42:39;;;;;;;29.10;11.90;;;;;;;18.78;49.53;102105.76;107629;1254;99727;-62
2023/10/03 08:45:17;;;;;;;34.80;10.80;;;;;;;19.05;47.95;102105.55;107617;1256;113367;-62
2023/10/03 08:47:50;;;;;;;25.60;9.50;;;;;;;19.32;47.47;102102.48;107627;1254;109065;-61
2023/10/03 08:50:33;;;;;;;;;;;;;;;19.58;46.42;102102.58;107581;1256;106751;-62
2023/10/03 08:55:50;;;;;;;42.60;11.50;;;;;;;20.10;45.39;102097.92;107586;1253;99858;-62
2023/10/03 08:58:18;;;;;;;35.40;11.00;;;;;;;20.38;45.62;102091.56;107507;1255;112485;-62
2023/10/03 09:00:49;;;;;;;24.90;9.80;;;;;;;20.71;45.16;102089.66;107581;1254;109881;-62
2023/10/03 09:03:18;;;;;;;32.60;10.90;;;;;;;21.04;43.74;102088.98;107572;1254;108985;-62
2023/10/03 09:05:47;;;;;;;32.10;11.00;;;;;;;21.39;42.70;102086.30;107598;1254;99292;-62
2023/10/03 09:08:17;;;;;;;31.10;10.60;;;;;;;21.80;42.72;102080.13;107629;1256;99070;-62
2023/10/03 09:10:52;;;;;;;33.90;9.40;;;;;;;22.37;41.87;102077.28;107620;1256;113256;-63
2023/10/03 09:13:27;;;;;;;22.90;10.00;;;;;;;23.09;40.90;102076.55;107544;1253;109889;-62
2023/10/03 09:16:00;;;;;;;24.50;8.60;;;;;;;23.78;39.71;102069.83;107562;1254;107713;-62
2023/10/03 09:18:31;;;;;;;19.50;8.60;;;;;;;24.44;39.51;102065.48;107615;1252;99205;-62
2023/10/03 09:20:59;;;;;;;22.60;9.00;;;;;;;25.05;38.91;102067.25;107626;1254;99758;-63
2023/10/03 09:23:37;;;;;;;24.60;8.70;;;;;;;25.67;36.95;102062.27;107609;1254;113971;-62
2023/10/03 09:26:07;;;;;;;28.10;9.20;;;;;;;26.31;35.90;102058.22;107595;1254;109655;-62
2023/10/03 09:28:36;;;;;;;16.70;8.50;;;;;;;26.89;34.86;102059.35;107604;1254;107422;-62
2023/10/03 09:31:08;;;;;;;21.10;8.50;;;;;;;27.33;33.95;102063.55;107558;1254;99252;-63
2023/10/03 09:33:40;;;;;;;24.90;9.30;;;;;;;27.76;33.24;102058.08;107615;1255;99163;-63
2023/10/03 09:36:09;;;;;;;21.80;8.80;;;;;;;28.28;32.27;102054.29;107546;1254;112350;-64
2023/10/03 09:38:45;;;;;;;21.10;8.80;;;;;;;28.58;30.95;102050.41;107515;1254;110185;-62
2023/10/03 09:41:17;;;;;;;32.60;9.00;;;;;;;29.04;29.91;102045.04;107511;1254;107453;-62
2023/10/03 09:43:49;;;;;;;24.00;8.00;;;;;;;29.34;30.61;102046.13;107514;1254;99374;-63
2023/10/03 09:46:23;;;;;;;24.90;9.40;;;;;;;29.86;29.49;102038.48;107429;1254;99209;-63
2023/10/03 09:48:53;;;;;;;19.40;8.40;;;;;;;30.16;29.02;102034.77;107587;1254;113541;-65
2023/10/03 09:51:45;;;;;;;20.40;8.50;;;;;;;30.47;28.41;102032.64;107583;1254;110318;-63
2023/10/03 09:54:24;;;;;;;21.00;9.10;;;;;;;30.90;28.25;102027.21;107630;1256;108350;-62
2023/10/03 09:56:55;;;;;;;24.70;9.20;;;;;;;31.36;28.27;102028.41;107594;1254;100429;-63
2023/10/03 09:59:24;;;;;;;23.10;9.00;;;;;;;31.85;27.70;102027.36;107573;1254;99099;-64
2023/10/03 10:01:57;;;;;;;21.00;8.70;;;;;;;32.27;26.52;102022.58;107664;1251;113322;-63
2023/10/03 10:04:30;;;;;;;26.80;7.90;;;;;;;32.48;26.12;102019.13;107560;1253;110047;-61
2023/10/03 10:07:29;;;;;;;16.90;7.90;;;;;;;32.80;24.94;102015.89;107562;1253;107999;-63
2023/10/03 10:10:14;;;;;;;18.30;8.20;;;;;;;33.18;25.61;102015.52;107237;1254;506282;-63
2023/10/03 10:13:13;;;;;;;22.20;8.90;;;;;;;33.45;24.41;102010.08;107536;1254;99805;-64
2023/10/03 10:16:00;;;;;;;19.70;8.20;;;;;;;33.53;24.15;102003.46;107577;1256;114994;-63
2023/10/03 10:18:44;;;;;;;18.50;8.30;;;;;;;33.74;23.72;102000.06;107548;1254;108885;-64
2023/10/03 10:21:31;;;;;;;18.10;8.10;;;;;;;33.99;23.71;101996.48;107548;1251;107990;-62
2023/10/03 10:24:21;;;;;;;15.20;7.60;;;;;;;34.51;24.34;101990.70;107565;1254;99109;-64
2023/10/03 10:26:52;;;;;;;19.50;7.90;;;;;;;34.97;23.11;101989.14;107582;1251;99808;-63
2023/10/03 10:29:23;;;;;;;13.90;8.10;;;;;;;35.24;21.99;101986.35;107597;1254;112365;-63
2023/10/03 10:31:59;;;;;;;21.20;8.20;;;;;;;35.30;21.61;101979.82;107607;1251;109915;-64
2023/10/03 10:34:29;;;;;;;18.50;8.30;;;;;;;35.37;21.76;101976.36;107582;1254;108369;-62
2023/10/03 10:37:02;;;;;;;21.40;8.50;;;;;;;35.51;21.11;101973.19;107613;1254;99100;-64
2023/10/03 10:43:00;;;;;;;19.50;8.40;;;;;;;35.21;21.22;101959.93;107597;1251;113264;-63
2023/10/03 10:45:37;;;;;;;19.90;7.70;;;;;;;35.37;20.66;101958.41;107609;1254;108955;-63
2023/10/03 10:48:11;;;;;;;15.70;7.70;;;;;;;35.39;20.92;101952.60;107523;1255;107543;-64
2023/10/03 10:51:03;;;;;;;18.20;8.00;;;;;;;35.71;20.93;101948.20;107592;1254;99160;-62
2023/10/03 10:53:37;;;;;;;16.70;8.30;;;;;;;35.99;19.49;101950.06;107622;1254;99219;-62
2023/10/03 10:56:13;;;;;;;13.10;7.70;;;;;;;35.93;19.39;101952.15;107623;1254;113561;-62
2023/10/03 10:58:50;;;;;;;13.20;6.70;;;;;;;35.82;19.48;101944.41;107571;1251;109554;-63
2023/10/03 11:01:20;;;;;;;17.20;7.30;;;;;;;35.95;19.36;101943.77;107561;1254;106904;-62
2023/10/03 11:03:49;;;;;;;15.20;7.30;;;;;;;35.81;18.84;101940.54;107618;1254;99378;-62
2023/10/03 11:06:19;;;;;;;17.10;7.50;;;;;;;35.72;19.36;101939.13;107649;1254;99220;-63
2023/10/03 11:08:51;;;;;;;13.50;7.40;;;;;;;35.82;19.13;101927.60;107587;1254;113612;-63
2023/10/03 11:11:20;;;;;;;13.30;7.10;;;;;;;35.72;18.86;101924.58;107575;1254;110287;-62
2023/10/03 11:13:50;;;;;;;11.50;6.60;;;;;;;35.37;19.19;101924.19;107528;1256;108229;-62
2023/10/03 11:16:26;;;;;;;16.20;8.20;;;;;;;35.07;19.25;101915.77;107532;1254;99173;-64
2023/10/03 11:18:58;;;;;;;15.50;7.20;;;;;;;34.81;19.29;101914.88;107688;1257;99175;-64
2023/10/03 11:21:29;;;;;;;18.40;7.70;;;;;;;34.64;19.49;101909.98;107590;1252;113499;-63
2023/10/03 11:24:16;;;;;;;17.40;7.60;;;;;;;34.43;19.83;101907.52;107592;1254;109092;-63
2023/10/03 11:26:55;;;;;;;10.60;6.60;;;;;;;34.29;19.56;101905.23;107617;1251;107801;-63
2023/10/03 11:29:46;;;;;;;19.70;7.30;;;;;;;34.07;19.66;101899.67;107669;1251;99840;-63
2023/10/03 11:32:32;;;;;;;15.10;7.40;;;;;;;33.84;19.85;101894.12;107630;1251;99726;-62